Time;durP1;ratioP1;P1;durP2;ratioP2;P2;SDS_P1;SDS_P2;PMS_P1;PMS_P2;Temp;Humidity;BMP_temperature;BMP_pressure;BME280_temperature;BME280_humidity;BME280_pressure;Samples;Min_cycle;Max_cycle;Signal;HPM_P1;HPM_P2
2021/07/23 00:00:11;;;;;;;;;;;;;;;18.51;100.00;96027.53;1048859;28;19987;-75
2021/07/23 00:00:44;;;;;;;;;;;;;;;18.50;100.00;96028.66;1049137;28;19912;-75
2021/07/23 00:01:15;;;;;;;;;;;;;;;18.54;100.00;96023.41;1048812;28;19920;-76
2021/07/23 00:01:45;;;;;;;;;;;;;;;18.54;100.00;96023.41;1048936;28;20384;-75
2021/07/23 00:02:15;;;;;;;;;;;;;;;18.56;100.00;96024.66;1048891;28;20336;-77
2021/07/23 00:02:48;;;;;;;;;;;;;;;18.58;100.00;96022.47;1048749;28;20389;-76
2021/07/23 00:03:19;;;;;;;;;;;;;;;18.57;100.00;96015.44;1048971;28;19912;-76
2021/07/23 00:03:49;;;;;;;;;;;;;;;18.58;100.00;96018.94;1049144;28;19940;-76
2021/07/23 00:04:19;;;;;;;;;;;;;;;18.58;100.00;96014.34;1049167;28;19943;-75
2021/07/23 00:04:51;;;;;;;;;;;;;;;18.56;100.00;96019.25;1049117;28;20285;-75
2021/07/23 00:05:21;;;;;;;;;;;;;;;18.54;100.00;96016.09;1049168;28;20008;-77
2021/07/23 00:05:51;;;;;;;;;;;;;;;18.59;100.00;96015.13;1048966;28;19931;-76
2021/07/23 00:06:21;;;;;;;;;;;;;;;18.56;100.00;96016.56;1049097;28;19939;-76
2021/07/23 00:06:55;;;;;;;;;;;;;;;18.54;100.00;96013.38;1049133;28;20470;-76
2021/07/23 00:07:25;;;;;;;;;;;;;;;18.50;100.00;96009.72;1057353;28;19986;-75
2021/07/23 00:07:55;;;;;;;;;;;;;;;18.39;100.00;96011.97;1053060;28;19940;-76
2021/07/23 00:08:25;;;;;;;;;;;;;;;18.35;100.00;96015.63;1053142;28;20418;-76
2021/07/23 00:08:56;;;;;;;;;;;;;;;18.34;100.00;96014.03;1053049;28;20019;-75
2021/07/23 00:09:26;;;;;;;;;;;;;;;18.34;100.00;96014.81;1049004;28;20302;-76
2021/07/23 00:09:56;;;;;;;;;;;;;;;18.34;100.00;96011.31;1049293;28;19912;-76
2021/07/23 00:10:27;;;;;;;;;;;;;;;18.37;100.00;96013.38;1049182;28;19951;-75
2021/07/23 00:10:57;;;;;;;;;;;;;;;18.40;100.00;96016.25;1049014;28;19916;-76
2021/07/23 00:11:27;;;;;;;;;;;;;;;18.43;100.00;96014.84;1049001;28;19999;-76
2021/07/23 00:11:58;;;;;;;;;;;;;;;18.44;100.00;96014.50;1049263;28;19923;-76
2021/07/23 00:12:28;;;;;;;;;;;;;;;18.45;100.00;96013.38;1049204;28;19909;-76
2021/07/23 00:12:59;;;;;;;;;;;;;;;18.47;100.00;96017.66;1048913;28;20344;-77
2021/07/23 00:13:29;;;;;;;;;;;;;;;18.48;100.00;96017.38;1049124;28;19920;-76
2021/07/23 00:13:59;;;;;;;;;;;;;;;18.49;100.00;96005.44;1049214;28;19908;-76
2021/07/23 00:14:30;;;;;;;;;;;;;;;18.49;100.00;96010.84;1049269;28;19943;-75
2021/07/23 00:15:00;;;;;;;;;;;;;;;18.51;100.00;96010.50;1049445;28;20361;-76
2021/07/23 00:15:31;;;;;;;;;;;;;;;18.51;100.00;96010.50;1049083;28;20404;-76
2021/07/23 00:16:01;;;;;;;;;;;;;;;18.52;100.00;96006.69;1049046;28;19987;-76
2021/07/23 00:16:31;;;;;;;;;;;;;;;18.52;100.00;96001.28;1048754;28;19931;-76
2021/07/23 00:17:02;;;;;;;;;;;;;;;18.49;100.00;96007.34;1048664;28;19959;-76
2021/07/23 00:17:32;;;;;;;;;;;;;;;18.49;100.00;96008.13;1048759;28;20316;-77
2021/07/23 00:18:02;;;;;;;;;;;;;;;18.50;100.00;96007.00;1048770;28;19920;-76
2021/07/23 00:18:32;;;;;;;;;;;;;;;18.49;100.00;96001.94;1049074;28;19909;-76
2021/07/23 00:19:06;;;;;;;;;;;;;;;18.48;100.00;96003.84;1057097;28;19907;-76
2021/07/23 00:19:36;;;;;;;;;;;;;;;18.43;100.00;96010.22;1057217;28;19912;-76
2021/07/23 00:20:07;;;;;;;;;;;;;;;18.42;100.00;96013.22;1057156;28;20266;-77
2021/07/23 00:20:37;;;;;;;;;;;;;;;18.41;100.00;96008.94;1056332;28;19911;-76
2021/07/23 00:21:07;;;;;;;;;;;;;;;18.37;100.00;96008.75;1048993;28;19909;-76
2021/07/23 00:21:37;;;;;;;;;;;;;;;18.35;100.00;96007.50;1049088;28;20029;-76
2021/07/23 00:22:08;;;;;;;;;;;;;;;18.32;100.00;96002.72;1049100;28;19916;-76
2021/07/23 00:22:38;;;;;;;;;;;;;;;18.32;100.00;96008.91;1049080;28;20353;-76
2021/07/23 00:23:08;;;;;;;;;;;;;;;18.30;100.00;96004.97;1048915;28;19955;-76
2021/07/23 00:23:39;;;;;;;;;;;;;;;18.32;100.00;96008.91;1049025;28;19955;-76
2021/07/23 00:24:09;;;;;;;;;;;;;;;18.32;100.00;96003.50;1049112;28;19920;-76
2021/07/23 00:24:39;;;;;;;;;;;;;;;18.31;100.00;96006.53;1057231;28;20022;-76
2021/07/23 00:25:10;;;;;;;;;;;;;;;18.29;100.00;96001.47;1057086;28;19914;-76
2021/07/23 00:25:40;;;;;;;;;;;;;;;18.29;100.00;96006.06;1056986;28;20003;-76
2021/07/23 00:26:10;;;;;;;;;;;;;;;18.30;100.00;96004.97;1057014;28;19950;-76
2021/07/23 00:26:41;;;;;;;;;;;;;;;18.30;100.00;96003.03;1049072;28;19919;-76
2021/07/23 00:27:11;;;;;;;;;;;;;;;18.32;100.00;96006.22;1049046;28;20001;-76
2021/07/23 00:27:41;;;;;;;;;;;;;;;18.31;100.00;96001.13;1049003;28;19962;-76
2021/07/23 00:28:12;;;;;;;;;;;;;;;18.30;100.00;95997.63;1048916;28;19909;-77
2021/07/23 00:28:42;;;;;;;;;;;;;;;18.29;100.00;96001.47;1049036;28;20013;-76
2021/07/23 00:29:12;;;;;;;;;;;;;;;18.30;100.00;95994.94;1049068;28;19959;-76
2021/07/23 00:29:43;;;;;;;;;;;;;;;18.30;100.00;96004.97;1053327;28;20226;-76
2021/07/23 00:30:13;;;;;;;;;;;;;;;18.31;100.00;95998.44;1052872;28;19919;-76
2021/07/23 00:30:43;;;;;;;;;;;;;;;18.27;100.00;96002.88;1052966;28;19912;-76
2021/07/23 00:31:14;;;;;;;;;;;;;;;18.28;100.00;95999.88;1052800;28;19923;-76
2021/07/23 00:31:44;;;;;;;;;;;;;;;18.29;100.00;95997.97;1044899;28;20019;-76
2021/07/23 00:32:14;;;;;;;;;;;;;;;18.26;100.00;95996.66;1044819;28;19920;-76
2021/07/23 00:32:44;;;;;;;;;;;;;;;18.27;100.00;95997.47;1048424;28;19938;-76
2021/07/23 00:33:15;;;;;;;;;;;;;;;18.27;100.00;95994.75;1048871;28;20553;-76
2021/07/23 00:33:45;;;;;;;;;;;;;;;18.30;100.00;95999.53;1048920;28;19912;-76
2021/07/23 00:34:15;;;;;;;;;;;;;;;18.30;100.00;95991.44;1048960;28;19987;-76
2021/07/23 00:34:46;;;;;;;;;;;;;;;18.29;100.00;95995.25;1053182;28;19916;-76
2021/07/23 00:35:16;;;;;;;;;;;;;;;18.29;100.00;95997.97;1053151;28;20327;-76
2021/07/23 00:35:46;;;;;;;;;;;;;;;18.29;100.00;95997.97;1053094;28;19999;-76
2021/07/23 00:36:16;;;;;;;;;;;;;;;18.30;100.00;95994.13;1053272;28;19904;-76
2021/07/23 00:36:47;;;;;;;;;;;;;;;18.31;100.00;95990.31;1053148;28;20388;-76
2021/07/23 00:37:17;;;;;;;;;;;;;;;18.30;100.00;95989.53;1053314;28;19930;-76
2021/07/23 00:37:47;;;;;;;;;;;;;;;18.31;100.00;95980.28;1053169;28;19988;-76
2021/07/23 00:38:18;;;;;;;;;;;;;;;18.30;100.00;95986.81;1053216;28;19908;-76
2021/07/23 00:38:48;;;;;;;;;;;;;;;18.29;100.00;95993.34;1053219;28;19939;-76
2021/07/23 00:39:18;;;;;;;;;;;;;;;18.28;100.00;95983.63;1053228;28;19904;-76
2021/07/23 00:39:49;;;;;;;;;;;;;;;18.26;100.00;95982.34;1053161;28;20307;-76
2021/07/23 00:40:19;;;;;;;;;;;;;;;18.23;100.00;95980.31;1048631;28;19919;-76
2021/07/23 00:40:49;;;;;;;;;;;;;;;18.22;100.00;95990.34;1048677;28;19909;-76
2021/07/23 00:41:20;;;;;;;;;;;;;;;18.21;100.00;95977.09;1052612;28;20274;-76
2021/07/23 00:41:50;;;;;;;;;;;;;;;18.19;100.00;95978.22;1048634;28;19908;-76
2021/07/23 00:42:20;;;;;;;;;;;;;;;18.19;100.00;95980.94;1054624;28;19943;-76
2021/07/23 00:42:51;;;;;;;;;;;;;;;18.19;100.00;95980.13;1057081;28;20249;-76
2021/07/23 00:43:21;;;;;;;;;;;;;;;18.17;100.00;95985.09;1052747;28;19905;-76
2021/07/23 00:43:51;;;;;;;;;;;;;;;18.17;100.00;95982.38;1057396;28;19914;-76
2021/07/23 00:44:21;;;;;;;;;;;;;;;18.17;100.00;95982.38;1057344;28;20364;-76
2021/07/23 00:44:52;;;;;;;;;;;;;;;18.16;100.00;95980.75;1057435;28;19907;-76
2021/07/23 00:45:22;;;;;;;;;;;;;;;18.15;100.00;95981.88;1057290;28;19938;-76
2021/07/23 00:45:52;;;;;;;;;;;;;;;18.14;100.00;95975.69;1057414;28;19904;-76
2021/07/23 00:46:24;;;;;;;;;;;;;;;18.14;100.00;95978.38;1057308;28;19957;-76
2021/07/23 00:46:56;;;;;;;;;;;;;;;18.13;100.00;95982.22;1052856;28;19912;-76
2021/07/23 00:47:26;;;;;;;;;;;;;;;18.12;100.00;95979.84;1052785;28;19905;-76
2021/07/23 00:48:01;;;;;;;;;;;;;;;18.12;100.00;95980.63;1052824;28;19908;-76
2021/07/23 00:48:31;;;;;;;;;;;;;;;18.13;100.00;95976.00;1049285;28;19948;-77
2021/07/23 00:49:01;;;;;;;;;;;;;;;18.13;100.00;95981.41;1052932;28;19908;-77
2021/07/23 00:49:32;;;;;;;;;;;;;;;18.14;100.00;95983.00;1052826;28;19990;-76
2021/07/23 00:50:02;;;;;;;;;;;;;;;18.14;100.00;95983.00;1052920;28;19915;-76
2021/07/23 00:50:33;;;;;;;;;;;;;;;18.12;100.00;95983.34;1052672;28;19919;-76
2021/07/23 00:51:03;;;;;;;;;;;;;;;18.11;100.00;95981.72;1052833;28;19912;-76
2021/07/23 00:51:33;;;;;;;;;;;;;;;18.10;100.00;95976.63;1052727;28;19977;-76
2021/07/23 00:52:03;;;;;;;;;;;;;;;18.10;100.00;95980.13;1048770;28;19909;-76
2021/07/23 00:52:34;;;;;;;;;;;;;;;18.08;100.00;95981.56;1052815;28;19916;-76
2021/07/23 00:53:04;;;;;;;;;;;;;;;18.08;100.00;95982.38;1052884;28;19908;-76
2021/07/23 00:53:35;;;;;;;;;;;;;;;18.07;100.00;95988.09;1052785;28;19916;-76
2021/07/23 00:54:05;;;;;;;;;;;;;;;18.05;100.00;95985.69;1052934;28;19961;-76
2021/07/23 00:54:35;;;;;;;;;;;;;;;18.03;100.00;95977.13;1057015;28;19926;-75
2021/07/23 00:55:06;;;;;;;;;;;;;;;18.00;100.00;95980.44;1057142;28;19904;-76
2021/07/23 00:55:37;;;;;;;;;;;;;;;18.00;100.00;95982.34;1057055;28;19912;-76
2021/07/23 00:56:07;;;;;;;;;;;;;;;17.99;100.00;95980.78;1056919;28;19908;-75
2021/07/23 00:56:37;;;;;;;;;;;;;;;17.98;100.00;95977.28;1052951;28;19920;-75
2021/07/23 00:57:08;;;;;;;;;;;;;;;17.98;100.00;95984.59;1052865;28;19966;-75
2021/07/23 00:57:38;;;;;;;;;;;;;;;17.99;100.00;95981.56;1052781;28;19979;-76
2021/07/23 00:58:08;;;;;;;;;;;;;;;18.01;100.00;95975.81;1052671;28;19912;-76
2021/07/23 00:58:39;;;;;;;;;;;;;;;18.01;100.00;95976.63;1056962;28;19923;-76
2021/07/23 00:59:09;;;;;;;;;;;;;;;18.00;100.00;95983.16;1061397;27;20356;-75
2021/07/23 00:59:39;;;;;;;;;;;;;;;18.01;100.00;95981.22;1058292;27;19915;-75
2021/07/23 01:00:10;;;;;;;;;;;;;;;18.02;100.00;95978.22;1057046;28;19916;-76
2021/07/23 01:00:40;;;;;;;;;;;;;;;18.04;100.00;95976.00;1053000;28;19923;-75
2021/07/23 01:01:10;;;;;;;;;;;;;;;18.07;100.00;95983.50;1053215;28;19956;-75
2021/07/23 01:01:41;;;;;;;;;;;;;;;18.07;100.00;95975.38;1053103;28;19969;-75
2021/07/23 01:02:11;;;;;;;;;;;;;;;18.09;100.00;95972.34;1053178;28;19998;-76
2021/07/23 01:02:41;;;;;;;;;;;;;;;18.10;100.00;95972.03;1048584;28;19923;-75
2021/07/23 01:03:12;;;;;;;;;;;;;;;18.12;100.00;95980.63;1052890;28;20003;-76
2021/07/23 01:03:42;;;;;;;;;;;;;;;18.15;100.00;95977.28;1052797;28;19923;-76
2021/07/23 01:04:12;;;;;;;;;;;;;;;18.16;100.00;95978.84;1052890;28;19947;-76
2021/07/23 01:04:43;;;;;;;;;;;;;;;18.17;100.00;95975.06;1052685;28;19920;-76
2021/07/23 01:05:13;;;;;;;;;;;;;;;18.17;100.00;95977.75;1048639;28;19913;-75
2021/07/23 01:05:44;;;;;;;;;;;;;;;18.18;100.00;95975.84;1048559;28;20369;-76
2021/07/23 01:06:14;;;;;;;;;;;;;;;18.18;100.00;95976.66;1044390;28;19944;-74
2021/07/23 01:06:44;;;;;;;;;;;;;;;18.17;100.00;95987.78;1044449;28;19985;-75
2021/07/23 01:07:15;;;;;;;;;;;;;;;18.14;100.00;95980.31;1044497;28;19917;-75
2021/07/23 01:07:45;;;;;;;;;;;;;;;18.13;100.00;95974.09;1044422;28;19991;-75
2021/07/23 01:08:16;;;;;;;;;;;;;;;18.14;100.00;95978.38;1053142;28;19912;-75
2021/07/23 01:08:46;;;;;;;;;;;;;;;18.17;100.00;95979.69;1053092;28;20007;-74
2021/07/23 01:09:17;;;;;;;;;;;;;;;18.17;100.00;95972.34;1052993;28;19966;-75
2021/07/23 01:09:47;;;;;;;;;;;;;;;18.19;100.00;95980.94;1053059;28;19916;-75
2021/07/23 01:10:17;;;;;;;;;;;;;;;18.18;100.00;95975.84;1053114;28;19912;-75
2021/07/23 01:10:48;;;;;;;;;;;;;;;18.19;100.00;95975.53;1053013;28;19915;-75
2021/07/23 01:11:18;;;;;;;;;;;;;;;18.19;100.00;95978.22;1048518;28;19905;-75
2021/07/23 01:11:48;;;;;;;;;;;;;;;18.21;100.00;95983.31;1048635;28;19916;-75
2021/07/23 01:12:18;;;;;;;;;;;;;;;18.22;100.00;95976.81;1050217;28;20328;-75
2021/07/23 01:12:49;;;;;;;;;;;;;;;18.23;100.00;95980.31;1052784;28;19912;-76
2021/07/23 01:13:19;;;;;;;;;;;;;;;18.22;100.00;95981.41;1052583;28;19908;-75
2021/07/23 01:13:49;;;;;;;;;;;;;;;18.19;100.00;95978.22;1052759;28;20406;-75
2021/07/23 01:14:20;;;;;;;;;;;;;;;18.15;100.00;95971.06;1052806;28;19908;-75
2021/07/23 01:14:50;;;;;;;;;;;;;;;18.13;100.00;95978.72;1057259;28;20276;-75
2021/07/23 01:15:20;;;;;;;;;;;;;;;18.13;100.00;95976.81;1057142;28;19947;-75
2021/07/23 01:15:50;;;;;;;;;;;;;;;18.12;100.00;95974.44;1052770;28;19919;-76
2021/07/23 01:16:21;;;;;;;;;;;;;;;18.11;100.00;95979.00;1052736;28;19927;-74
2021/07/23 01:16:51;;;;;;;;;;;;;;;18.09;100.00;95975.84;1052716;28;19938;-74
2021/07/23 01:17:21;;;;;;;;;;;;;;;18.08;100.00;95984.28;1052551;28;20308;-75
2021/07/23 01:17:52;;;;;;;;;;;;;;;18.06;100.00;95971.06;1057166;28;19955;-75
2021/07/23 01:18:22;;;;;;;;;;;;;;;18.06;100.00;95975.66;1052748;28;19908;-75
2021/07/23 01:18:52;;;;;;;;;;;;;;;17.98;100.00;95979.19;1052734;28;19924;-75
2021/07/23 01:19:23;;;;;;;;;;;;;;;17.96;100.00;95979.47;1052732;28;20341;-75
2021/07/23 01:20:01;;;;;;;;;;;;;;;17.95;100.00;95982.50;1052898;28;19912;-75
2021/07/23 01:20:31;;;;;;;;;;;;;;;17.92;100.00;95983.97;1057232;28;20352;-75
2021/07/23 01:21:02;;;;;;;;;;;;;;;17.89;100.00;95984.56;1052771;28;19909;-75
2021/07/23 01:21:32;;;;;;;;;;;;;;;17.87;100.00;95982.19;1056881;28;19900;-74
2021/07/23 01:22:02;;;;;;;;;;;;;;;17.85;100.00;95983.59;1052709;28;19905;-74
2021/07/23 01:22:34;;;;;;;;;;;;;;;17.85;100.00;95981.69;1048632;28;19901;-75
2021/07/23 01:23:04;;;;;;;;;;;;;;;17.84;100.00;95977.41;1052503;28;19916;-74
2021/07/23 01:23:34;;;;;;;;;;;;;;;17.81;100.00;95978.06;1052825;28;19900;-74
2021/07/23 01:24:05;;;;;;;;;;;;;;;17.79;100.00;95979.47;1057224;28;19914;-74
2021/07/23 01:24:36;;;;;;;;;;;;;;;17.78;100.00;95981.38;1056937;28;19907;-74
2021/07/23 01:25:06;;;;;;;;;;;;;;;17.75;100.00;95973.09;1052605;28;19908;-74
2021/07/23 01:25:36;;;;;;;;;;;;;;;17.76;100.00;95977.38;1052558;28;19953;-75
2021/07/23 01:26:07;;;;;;;;;;;;;;;17.73;100.00;95981.53;1052798;28;19962;-75
2021/07/23 01:26:37;;;;;;;;;;;;;;;17.72;100.00;95976.44;1052851;28;19908;-75
2021/07/23 01:27:07;;;;;;;;;;;;;;;17.72;100.00;95971.03;1056982;28;19951;-75
2021/07/23 01:27:43;;;;;;;;;;;;;;;17.71;100.00;95972.94;1052659;28;19908;-75
2021/07/23 01:28:13;;;;;;;;;;;;;;;17.70;100.00;95975.94;1053462;28;19912;-75
2021/07/23 01:28:46;;;;;;;;;;;;;;;17.71;100.00;95977.50;1057091;28;20233;-75
2021/07/23 01:29:16;;;;;;;;;;;;;;;17.71;100.00;95972.09;1057257;28;19920;-75
2021/07/23 01:29:47;;;;;;;;;;;;;;;17.71;100.00;95972.09;1053991;28;20002;-75
2021/07/23 01:30:20;;;;;;;;;;;;;;;17.68;100.00;95973.53;1053075;28;20272;-75
2021/07/23 01:30:51;;;;;;;;;;;;;;;17.70;100.00;95975.94;1052952;28;19935;-75
2021/07/23 01:31:21;;;;;;;;;;;;;;;17.71;100.00;95969.41;1052937;28;20357;-75
2021/07/23 01:31:51;;;;;;;;;;;;;;;17.72;100.00;95981.81;1053011;28;19916;-75
2021/07/23 01:32:22;;;;;;;;;;;;;;;17.71;100.00;95974.81;1053071;28;19908;-75
2021/07/23 01:32:52;;;;;;;;;;;;;;;17.69;100.00;95980.53;1053088;28;19946;-75
2021/07/23 01:33:23;;;;;;;;;;;;;;;17.68;100.00;95973.53;1053052;28;19951;-75
2021/07/23 01:33:53;;;;;;;;;;;;;;;17.70;100.00;95982.13;1052916;28;19919;-76
2021/07/23 01:34:23;;;;;;;;;;;;;;;17.72;100.00;95974.50;1052915;28;19900;-75
2021/07/23 01:34:54;;;;;;;;;;;;;;;17.73;100.00;95981.53;1053028;28;20361;-76
2021/07/23 01:35:24;;;;;;;;;;;;;;;17.74;100.00;95971.50;1053166;28;19938;-76
2021/07/23 01:35:54;;;;;;;;;;;;;;;17.75;100.00;95973.09;1052979;28;19969;-76
2021/07/23 01:36:25;;;;;;;;;;;;;;;17.75;100.00;95968.50;1053068;28;19907;-76
2021/07/23 01:36:55;;;;;;;;;;;;;;;17.76;100.00;95977.38;1053001;28;20023;-76
2021/07/23 01:37:26;;;;;;;;;;;;;;;17.76;100.00;95977.38;1048611;28;19927;-76
2021/07/23 01:37:57;;;;;;;;;;;;;;;17.75;100.00;95979.31;1048585;28;20319;-75
2021/07/23 01:38:27;;;;;;;;;;;;;;;17.75;100.00;95967.69;1052751;28;19905;-75
2021/07/23 01:38:58;;;;;;;;;;;;;;;17.75;100.00;95973.91;1052720;28;20379;-75
2021/07/23 01:39:28;;;;;;;;;;;;;;;17.76;100.00;95966.56;1048591;28;19912;-75
2021/07/23 01:39:58;;;;;;;;;;;;;;;17.76;100.00;95975.50;1044258;28;20285;-76
2021/07/23 01:40:28;;;;;;;;;;;;;;;17.77;100.00;95968.19;1044412;28;19960;-76
2021/07/23 01:40:59;;;;;;;;;;;;;;;17.78;100.00;95970.56;1044389;28;20365;-76
2021/07/23 01:41:29;;;;;;;;;;;;;;;17.74;100.00;95972.31;1048526;28;19904;-76
2021/07/23 01:41:59;;;;;;;;;;;;;;;17.77;100.00;95970.91;1052973;28;19917;-76
2021/07/23 01:42:30;;;;;;;;;;;;;;;17.79;100.00;95969.44;1059960;27;20379;-76
2021/07/23 01:43:00;;;;;;;;;;;;;;;17.78;100.00;95967.88;1061062;28;20382;-75
2021/07/23 01:43:30;;;;;;;;;;;;;;;17.79;100.00;95960.56;1061213;28;20300;-75
2021/07/23 01:44:01;;;;;;;;;;;;;;;17.82;100.00;95962.63;1061229;28;19951;-76
2021/07/23 01:44:31;;;;;;;;;;;;;;;17.84;100.00;95971.22;1057310;28;19904;-75
2021/07/23 01:45:02;;;;;;;;;;;;;;;17.86;100.00;95968.97;1057350;28;20352;-76
2021/07/23 01:45:33;;;;;;;;;;;;;;;17.86;100.00;95960.88;1058286;28;19904;-75
2021/07/23 01:46:03;;;;;;;;;;;;;;;17.88;100.00;95964.06;1058720;28;19916;-76
2021/07/23 01:46:33;;;;;;;;;;;;;;;17.87;100.00;95963.28;1058861;28;19956;-76
2021/07/23 01:47:04;;;;;;;;;;;;;;;17.86;100.00;95968.97;1054443;28;19935;-76
2021/07/23 01:47:34;;;;;;;;;;;;;;;17.86;100.00;95968.97;1054656;28;20207;-76
2021/07/23 01:48:04;;;;;;;;;;;;;;;17.86;100.00;95969.78;1054333;28;20300;-76
2021/07/23 01:48:35;;;;;;;;;;;;;;;17.88;100.00;95972.97;1050054;28;19905;-75
2021/07/23 01:49:05;;;;;;;;;;;;;;;17.89;100.00;95962.94;1057900;28;19912;-76
2021/07/23 01:49:35;;;;;;;;;;;;;;;17.87;100.00;95965.97;1057291;28;19908;-76
2021/07/23 01:50:06;;;;;;;;;;;;;;;17.87;100.00;95965.97;1056968;28;19946;-76
2021/07/23 01:50:36;;;;;;;;;;;;;;;17.86;100.00;95958.16;1061072;28;19918;-75
2021/07/23 01:51:08;;;;;;;;;;;;;;;17.89;100.00;95962.94;1057177;28;19916;-75
2021/07/23 01:51:38;;;;;;;;;;;;;;;17.89;100.00;95958.34;1057410;28;20382;-76
2021/07/23 01:52:09;;;;;;;;;;;;;;;17.92;100.00;95965.03;1058147;28;19919;-76
2021/07/23 01:52:39;;;;;;;;;;;;;;;17.91;100.00;95963.41;1058557;28;19969;-76
2021/07/23 01:53:09;;;;;;;;;;;;;;;17.91;100.00;95971.53;1058248;28;19954;-75
2021/07/23 01:53:40;;;;;;;;;;;;;;;17.89;100.00;95963.75;1057385;28;20298;-76
2021/07/23 01:54:10;;;;;;;;;;;;;;;17.90;100.00;95967.25;1057249;28;19937;-75
2021/07/23 01:54:40;;;;;;;;;;;;;;;17.90;100.00;95965.31;1057294;28;19912;-75
2021/07/23 01:55:11;;;;;;;;;;;;;;;17.92;100.00;95965.81;1056184;28;20332;-76
2021/07/23 01:55:42;;;;;;;;;;;;;;;17.92;100.00;95963.13;1058453;28;20006;-76
2021/07/23 01:56:13;;;;;;;;;;;;;;;17.91;100.00;95963.41;1058203;28;20360;-75
2021/07/23 01:56:43;;;;;;;;;;;;;;;17.90;100.00;95965.31;1057996;28;19911;-76
2021/07/23 01:57:14;;;;;;;;;;;;;;;17.92;100.00;95965.81;1053629;28;20003;-75
2021/07/23 01:57:44;;;;;;;;;;;;;;;17.92;100.00;95967.72;1048998;28;19919;-75
2021/07/23 01:58:14;;;;;;;;;;;;;;;17.90;100.00;95965.31;1048517;28;19954;-75
2021/07/23 01:58:44;;;;;;;;;;;;;;;17.89;100.00;95962.94;1048505;28;19916;-76
2021/07/23 01:59:15;;;;;;;;;;;;;;;17.89;100.00;95965.66;1055239;28;20003;-75
2021/07/23 01:59:45;;;;;;;;;;;;;;;17.88;100.00;95966.78;1052705;28;19916;-76
2021/07/23 02:00:15;;;;;;;;;;;;;;;17.86;100.00;95969.78;1052549;28;20362;-76
2021/07/23 02:00:46;;;;;;;;;;;;;;;17.86;100.00;95964.38;1052044;28;19919;-75
2021/07/23 02:01:16;;;;;;;;;;;;;;;17.87;100.00;95967.88;1047437;28;19926;-76
2021/07/23 02:01:46;;;;;;;;;;;;;;;17.86;100.00;95967.09;1048545;28;19913;-76
2021/07/23 02:02:17;;;;;;;;;;;;;;;17.86;100.00;95964.38;1048581;28;20433;-76
2021/07/23 02:02:47;;;;;;;;;;;;;;;17.87;100.00;95960.56;1048563;28;19912;-76
2021/07/23 02:03:17;;;;;;;;;;;;;;;17.89;100.00;95962.94;1048455;28;19919;-75
2021/07/23 02:03:48;;;;;;;;;;;;;;;17.87;100.00;95965.97;1053022;28;19957;-75
2021/07/23 02:04:18;;;;;;;;;;;;;;;17.84;100.00;95950.38;1052937;28;19955;-76
2021/07/23 02:04:48;;;;;;;;;;;;;;;17.87;100.00;95960.56;1053073;28;19920;-75
2021/07/23 02:05:18;;;;;;;;;;;;;;;17.89;100.00;95962.94;1052946;28;19908;-75
2021/07/23 02:05:49;;;;;;;;;;;;;;;17.89;100.00;95960.25;1053099;28;19966;-76
2021/07/23 02:06:19;;;;;;;;;;;;;;;17.89;100.00;95954.84;1052692;28;19958;-76
2021/07/23 02:06:49;;;;;;;;;;;;;;;17.86;100.00;95968.97;1048539;28;20292;-75
2021/07/23 02:07:20;;;;;;;;;;;;;;;17.83;100.00;95964.22;1048405;28;19954;-76
2021/07/23 02:07:50;;;;;;;;;;;;;;;17.83;100.00;95962.31;1044336;28;19952;-75
2021/07/23 02:08:20;;;;;;;;;;;;;;;17.80;100.00;95964.84;1044308;28;19913;-75
2021/07/23 02:08:51;;;;;;;;;;;;;;;17.79;100.00;95963.25;1048626;28;19916;-75
2021/07/23 02:09:21;;;;;;;;;;;;;;;17.83;100.00;95958.81;1048463;28;19913;-75
2021/07/23 02:09:51;;;;;;;;;;;;;;;17.84;100.00;95953.09;1053085;28;19947;-76
2021/07/23 02:10:22;;;;;;;;;;;;;;;17.84;100.00;95957.69;1048419;28;19939;-75
2021/07/23 02:10:52;;;;;;;;;;;;;;;17.86;100.00;95963.56;1048522;28;19909;-75
2021/07/23 02:11:22;;;;;;;;;;;;;;;17.85;100.00;95959.28;1044388;28;19958;-75
2021/07/23 02:11:52;;;;;;;;;;;;;;;17.85;100.00;95957.38;1044503;28;19905;-75
2021/07/23 02:12:23;;;;;;;;;;;;;;;17.88;100.00;95959.44;1048691;28;19971;-75
2021/07/23 02:12:54;;;;;;;;;;;;;;;17.87;100.00;95959.78;1049042;28;19905;-75
2021/07/23 02:13:24;;;;;;;;;;;;;;;17.88;100.00;95951.34;1053745;28;19993;-75
2021/07/23 02:13:54;;;;;;;;;;;;;;;17.86;100.00;95958.16;1053708;28;19908;-75
2021/07/23 02:14:28;;;;;;;;;;;;;;;17.87;100.00;95957.88;1053759;28;19911;-75
2021/07/23 02:14:58;;;;;;;;;;;;;;;17.89;100.00;95965.66;1053833;28;19900;-75
2021/07/23 02:15:29;;;;;;;;;;;;;;;17.90;100.00;95959.91;1049308;28;20373;-75
2021/07/23 02:16:02;;;;;;;;;;;;;;;17.89;100.00;95952.94;1049217;28;19904;-75
2021/07/23 02:16:32;;;;;;;;;;;;;;;17.89;100.00;95952.13;1049228;28;20381;-75
2021/07/23 02:17:03;;;;;;;;;;;;;;;17.86;100.00;95958.97;1049489;28;19901;-75
2021/07/23 02:17:33;;;;;;;;;;;;;;;17.86;100.00;95952.75;1048821;28;19908;-75
2021/07/23 02:18:03;;;;;;;;;;;;;;;17.83;100.00;95959.59;1048857;28;19932;-75
2021/07/23 02:18:34;;;;;;;;;;;;;;;17.81;100.00;95945.63;1053185;28;20349;-76
2021/07/23 02:19:06;;;;;;;;;;;;;;;17.80;100.00;95949.41;1053370;28;19946;-76
2021/07/23 02:19:36;;;;;;;;;;;;;;;17.80;100.00;95952.13;1053416;28;19905;-75
2021/07/23 02:20:07;;;;;;;;;;;;;;;17.78;100.00;95953.56;1052725;28;19931;-75
2021/07/23 02:20:37;;;;;;;;;;;;;;;17.78;100.00;95956.25;1048703;28;20337;-75
2021/07/23 02:21:07;;;;;;;;;;;;;;;17.77;100.00;95963.59;1048978;28;19946;-76
2021/07/23 02:21:38;;;;;;;;;;;;;;;17.72;100.00;95952.09;1053732;28;19912;-75
2021/07/23 02:22:08;;;;;;;;;;;;;;;17.70;100.00;95955.09;1049337;28;19909;-75
2021/07/23 02:22:38;;;;;;;;;;;;;;;17.68;100.00;95958.13;1049591;28;19904;-75
2021/07/23 02:23:09;;;;;;;;;;;;;;;17.66;100.00;95949.56;1049365;28;19904;-75
2021/07/23 02:23:39;;;;;;;;;;;;;;;17.65;100.00;95956.03;1049694;28;19947;-75
2021/07/23 02:24:09;;;;;;;;;;;;;;;17.62;100.00;95953.19;1053645;28;20276;-75
2021/07/23 02:24:39;;;;;;;;;;;;;;;17.59;100.00;95957.31;1053854;28;19904;-75
2021/07/23 02:25:10;;;;;;;;;;;;;;;17.57;100.00;95958.75;1053704;28;20368;-75
2021/07/23 02:25:40;;;;;;;;;;;;;;;17.56;100.00;95955.25;1049262;28;19995;-75
2021/07/23 02:26:19;;;;;;;;;;;;;;;17.54;100.00;95956.66;1053223;28;20301;-75
2021/07/23 02:26:49;;;;;;;;;;;;;;;17.54;100.00;95957.47;1053455;28;19967;-75
2021/07/23 02:27:20;;;;;;;;;;;;;;;17.52;100.00;95958.91;1054611;28;19994;-75
2021/07/23 02:27:50;;;;;;;;;;;;;;;17.52;100.00;95958.91;1056575;28;19907;-75
2021/07/23 02:28:20;;;;;;;;;;;;;;;17.49;100.00;95954.09;1053505;28;19987;-75
2021/07/23 02:28:51;;;;;;;;;;;;;;;17.49;100.00;95959.50;1053679;28;19908;-76
2021/07/23 02:29:21;;;;;;;;;;;;;;;17.47;100.00;95959.84;1049113;28;20009;-75
2021/07/23 02:29:51;;;;;;;;;;;;;;;17.46;100.00;95947.44;1049247;28;19900;-75
2021/07/23 02:30:22;;;;;;;;;;;;;;;17.47;100.00;95954.44;1049019;28;20423;-75
2021/07/23 02:30:52;;;;;;;;;;;;;;;17.47;100.00;95954.44;1049172;28;20001;-75
2021/07/23 02:31:23;;;;;;;;;;;;;;;17.48;100.00;95955.22;1053343;28;20436;-75
2021/07/23 02:31:53;;;;;;;;;;;;;;;17.49;100.00;95956.81;1053682;28;19912;-75
2021/07/23 02:32:23;;;;;;;;;;;;;;;17.50;100.00;95964.59;1053613;28;20357;-75
2021/07/23 02:32:53;;;;;;;;;;;;;;;17.50;100.00;95959.19;1053494;28;20317;-75
2021/07/23 02:33:24;;;;;;;;;;;;;;;17.51;100.00;95952.69;1053422;28;20002;-75
2021/07/23 02:33:54;;;;;;;;;;;;;;;17.53;100.00;95953.16;1049143;28;19958;-75
2021/07/23 02:34:24;;;;;;;;;;;;;;;17.52;100.00;95959.69;1048995;28;19917;-75
2021/07/23 02:34:55;;;;;;;;;;;;;;;17.51;100.00;95958.09;1049264;28;19916;-75
2021/07/23 02:35:27;;;;;;;;;;;;;;;17.51;100.00;95962.72;1048541;28;20627;-75
2021/07/23 02:35:57;;;;;;;;;;;;;;;17.48;100.00;95963.34;1053718;28;20285;-75
2021/07/23 02:36:27;;;;;;;;;;;;;;;17.46;100.00;95958.25;1053635;28;20266;-74